Bookmark and Share
Track history (hours):
 

MSC Jordan

Last reported at 2014-Apr-25 04:23 UTC. Time now 2014-Apr-25 06:24 UTC.
Position N 51°54' E 001°41'.

Length 237 m; draft 9.4 m.

Type: Ship (hazmat cat B). MMSI: 355194000.

NotesDate/timePositionNaut miles runAvg speedWind from/ knotsBaromVisibWave heightAir tempDewpointWater temp
2014-Apr-25 04:23N 51°54' E 001°41'0 0.0
2014-Apr-25 02:28N 51°54' E 001°41'0 0.1
2014-Apr-25 01:19N 51°54' E 001°41'0 0.2
2014-Apr-25 00:31N 51°54' E 001°41'1 1.0
2014-Apr-24 23:34N 51°54' E 001°43'1413.6
2014-Apr-24 22:34N 51°41' E 001°49'1616.2
2014-Apr-24 21:33N 51°26' E 002°01'1514.8
2014-Apr-24 20:34N 51°22' E 002°23'1514.7
2014-Apr-24 19:33N 51°22' E 002°47'1716.7
2014-Apr-24 18:33N 51°25' E 003°13'1515.0
2014-Apr-24 17:34N 51°26' E 003°37'1110.9
2014-Apr-24 16:34N 51°21' E 003°52'10 9.7
2014-Apr-24 15:34N 51°22' E 004°08'6 6.2
2014-Apr-24 14:34N 51°21' E 004°17'0 0.1
2014-Apr-24 13:34N 51°21' E 004°17'2 2.0
2014-Apr-24 12:32N 51°20' E 004°20'0 0.0
2014-Apr-24 11:32N 51°20' E 004°20'0 0.0
2014-Apr-24 10:32N 51°20' E 004°20'0 0.0
2014-Apr-24 09:32N 51°20' E 004°20'0 0.0
2014-Apr-24 08:29N 51°20' E 004°20'0 0.0
2014-Apr-24 07:32N 51°20' E 004°20'0 0.0
2014-Apr-24 06:33N 51°20' E 004°20'0 0.0
2014-Apr-24 05:30N 51°20' E 004°20'0 0.0
2014-Apr-24 04:33N 51°20' E 004°20'0 0.0
2014-Apr-24 03:33N 51°20' E 004°20'0 0.0
2014-Apr-24 02:30N 51°20' E 004°20'0 0.0
2014-Apr-24 01:33N 51°20' E 004°20'0 0.0
2014-Apr-24 00:33N 51°20' E 004°20'0 0.0
2014-Apr-23 23:33N 51°20' E 004°20'0 0.0
2014-Apr-23 22:33N 51°20' E 004°20'0 0.0
2014-Apr-23 21:32N 51°20' E 004°20'0 0.0
2014-Apr-23 20:32N 51°20' E 004°20'0 0.0
2014-Apr-23 19:32N 51°20' E 004°20'0 0.0
2014-Apr-23 18:32N 51°20' E 004°20'0 0.0
2014-Apr-23 17:32N 51°20' E 004°20'0 0.0
2014-Apr-23 16:32N 51°20' E 004°20'0 0.0
2014-Apr-23 15:33N 51°20' E 004°20'0 0.1
2014-Apr-23 14:33N 51°20' E 004°20'2 2.2
2014-Apr-23 13:34N 51°21' E 004°17'0 0.4
2014-Apr-23 12:34N 51°21' E 004°16'6 6.1
2014-Apr-23 11:33N 51°22' E 004°07'8 8.1
2014-Apr-23 10:33N 51°21' E 003°54'1312.7
2014-Apr-23 09:33N 51°26' E 003°35'1313.1
2014-Apr-23 08:34N 51°36' E 003°22'1110.9
2014-Apr-23 07:33N 51°46' E 003°14'5 3.9
2014-Apr-23 06:22N 51°48' E 003°21'0 0.1
2014-Apr-23 04:07N 51°48' E 003°21'0 0.1
2014-Apr-23 03:31N 51°48' E 003°21'0 0.0
2014-Apr-23 02:22N 51°48' E 003°21'0 0.0
2014-Apr-23 01:31N 51°48' E 003°21'0 0.2
2014-Apr-23 00:31N 51°48' E 003°21'1111.2
2014-Apr-22 23:33N 51°59' E 003°20'1715.5
2014-Apr-22 22:26N 52°16' E 003°23'2814.5
2014-Apr-22 20:31N 52°43' E 003°38'3715.1
2014-Apr-22 18:05N 53°09' E 004°21'916.4
2014-Apr-22 17:33N 53°16' E 004°28'1716.6
2014-Apr-22 16:33N 53°32' E 004°37'2416.1
2014-Apr-22 15:04N 53°55' E 004°50'28015.9
2014-Apr-21 21:27N 57°41' E 009°43'1617.4
2014-Apr-21 20:33N 57°46' E 010°12'1717.0
2014-Apr-21 19:34N 57°48' E 010°43'1616.0
2014-Apr-21 18:34N 57°38' E 011°07'1716.9
2014-Apr-21 17:33N 57°25' E 011°28'1717.0
2014-Apr-21 16:33N 57°09' E 011°39'1716.7
2014-Apr-21 15:33N 56°54' E 011°49'1515.0
2014-Apr-21 14:33N 56°39' E 011°47'12515.1
2014-Apr-21 06:18N 54°36' E 011°09'1519.7
2014-Apr-21 05:33N 54°30' E 011°32'1817.6
2014-Apr-21 04:33N 54°27' E 012°01'1414.3
2014-Apr-21 03:33N 54°37' E 012°17'1716.9
2014-Apr-21 02:33N 54°47' E 012°42'1716.6
2014-Apr-21 01:33N 54°52' E 013°09'1716.6
2014-Apr-21 00:33N 54°57' E 013°37'1716.6
2014-Apr-20 23:33N 55°03' E 014°03'1716.5
2014-Apr-20 22:33N 55°16' E 014°21'1616.3
2014-Apr-20 21:33N 55°28' E 014°41'1716.8
2014-Apr-20 20:33N 55°37' E 015°07'1716.9
2014-Apr-20 19:33N 55°45' E 015°32'1716.7
2014-Apr-20 18:33N 55°53' E 015°58'1716.7
2014-Apr-20 17:33N 56°01' E 016°24'31016.3
2014-Apr-19 22:33N 59°38' E 023°19'1616.4
2014-Apr-19 21:33N 59°43' E 023°51'1616.3
2014-Apr-19 20:33N 59°47' E 024°22'1716.2
2014-Apr-19 19:29N 59°52' E 024°55'3115.8
2014-Apr-19 17:32N 59°57' E 025°56'1715.9
2014-Apr-19 16:29N 60°01' E 026°28'11013.5
2014-Apr-19 08:19N 59°54' E 030°08'2 3.1
2014-Apr-19 07:32N 59°52' E 030°12'0 0.0
2014-Apr-19 06:33N 59°52' E 030°12'0 0.0
2014-Apr-19 05:33N 59°52' E 030°12'0 0.0
2014-Apr-19 04:33N 59°52' E 030°12'0 0.0
2014-Apr-19 03:30N 59°52' E 030°12'0 0.0
2014-Apr-19 02:33N 59°52' E 030°12'0 0.0
2014-Apr-19 01:33N 59°52' E 030°12'0 0.0
2014-Apr-19 00:33N 59°52' E 030°12'0 0.0
2014-Apr-18 23:33N 59°52' E 030°12'0 0.0
2014-Apr-18 22:33N 59°52' E 030°12'0 0.0
2014-Apr-18 21:30N 59°52' E 030°12'0 0.0
2014-Apr-18 20:33N 59°52' E 030°12'0 0.0
2014-Apr-18 19:33N 59°52' E 030°12'0 0.0
2014-Apr-18 18:33N 59°52' E 030°12'0 0.0
2014-Apr-18 17:33N 59°52' E 030°12'0 0.0
2014-Apr-18 16:33N 59°52' E 030°12'0 0.0
2014-Apr-18 15:33N 59°52' E 030°12'0 0.0
2014-Apr-18 14:31N 59°52' E 030°12'0 0.0
2014-Apr-18 13:31N 59°52' E 030°12'0 0.0
2014-Apr-18 12:31N 59°52' E 030°12'0 0.0
2014-Apr-18 11:31N 59°52' E 030°12'0 0.0
2014-Apr-18 10:31N 59°52' E 030°12'0 0.0
2014-Apr-18 09:31N 59°52' E 030°12'0 0.0
2014-Apr-18 08:31N 59°52' E 030°12'0 0.0
2014-Apr-18 07:31N 59°52' E 030°12'0 0.0
2014-Apr-18 06:33N 59°52' E 030°12'0 0.0
2014-Apr-18 05:31N 59°52' E 030°12'0 0.0
2014-Apr-18 04:31N 59°52' E 030°12'0 0.0
2014-Apr-18 03:30N 59°52' E 030°12'0 0.0
2014-Apr-18 02:31N 59°52' E 030°12'0 0.0
2014-Apr-18 01:31N 59°52' E 030°12'0 0.0
2014-Apr-18 00:31N 59°52' E 030°12'0 0.0
2014-Apr-17 23:31N 59°52' E 030°12'0 0.0
2014-Apr-17 22:34N 59°52' E 030°12'0 0.0
2014-Apr-17 21:33N 59°52' E 030°12'0 0.0
2014-Apr-17 20:33N 59°52' E 030°12'0 0.0
2014-Apr-17 19:33N 59°52' E 030°12'0 0.0
2014-Apr-17 18:33N 59°52' E 030°12'0 0.0
2014-Apr-17 17:32N 59°52' E 030°12'0 0.0
2014-Apr-17 16:32N 59°52' E 030°12'0 0.0
2014-Apr-17 15:32N 59°52' E 030°12'0 0.0
2014-Apr-17 14:32N 59°52' E 030°12'0 0.0
2014-Apr-17 13:33N 59°52' E 030°12'11013.8
2014-Apr-17 05:33N 59°58' E 026°32'1918.8
2014-Apr-17 04:31N 59°53' E 025°55'2818.8
2014-Apr-17 03:03N 59°48' E 025°01'918.6
2014-Apr-17 02:33N 59°46' E 024°43'1918.6
2014-Apr-17 01:33N 59°40' E 024°08'1918.7
2014-Apr-17 00:33N 59°35' E 023°33'1918.6
2014-Apr-16 23:32N 59°29' E 022°57'28318.9
2014-Apr-16 08:33N 56°05' E 016°49'1919.5
2014-Apr-16 07:33N 55°55' E 016°20'1919.2
2014-Apr-16 06:33N 55°45' E 015°50'1919.1
2014-Apr-16 05:33N 55°35' E 015°20'2019.6
2014-Apr-16 04:33N 55°27' E 014°50'2019.6
2014-Apr-16 03:33N 55°13' E 014°25'2019.6
2014-Apr-16 02:33N 54°59' E 014°00'2019.8
2014-Apr-16 01:33N 54°53' E 013°28'2619.5
2014-Apr-16 00:14N 54°45' E 012°45'1318.9
2014-Apr-15 23:33N 54°38' E 012°26'1817.6
2014-Apr-15 22:33N 54°25' E 012°07'1818.3
2014-Apr-15 21:33N 54°27' E 011°36'2019.7
2014-Apr-15 20:33N 54°35' E 011°05'13715.3
2014-Apr-15 11:34N 56°50' E 011°49'2019.8
2014-Apr-15 10:34N 57°08' E 011°37'2020.0
2014-Apr-15 09:34N 57°27' E 011°24'1919.4
2014-Apr-15 08:34N 57°40' E 010°57'1817.6
2014-Apr-15 07:34N 57°46' E 010°26'  

Dump ship's entire track history

sailing weather and tide predictions

MSC Jordan — HPMK — position and weather